Time;durP1;ratioP1;P1;durP2;ratioP2;P2;SDS_P1;SDS_P2;PMS_P1;PMS_P2;Temp;Humidity;BMP_temperature;BMP_pressure;BME280_temperature;BME280_humidity;BME280_pressure;Samples;Min_cycle;Max_cycle;Signal;HPM_P1;HPM_P2
2021/03/04 00:04:59;;;;;;;;;;;5.70;99.90;;;;;;10504301;28;20746;-87
2021/03/04 00:10:00;;;;;;;;;;;6.60;99.90;;;;;;10485474;28;20405;-87
2021/03/04 00:15:02;;;;;;;;;;;5.40;99.90;;;;;;10502948;28;19972;-87
2021/03/04 00:20:21;;;;;;;;;;;5.30;99.90;;;;;;10502619;28;19928;-87
2021/03/04 00:25:24;;;;;;;;;;;5.30;99.90;;;;;;10502110;28;19932;-87
2021/03/04 00:30:25;;;;;;;;;;;5.60;99.90;;;;;;10502241;28;19929;-87
2021/03/04 00:35:27;;;;;;;;;;;5.50;99.90;;;;;;10484645;28;19925;-88
2021/03/04 00:40:28;;;;;;;;;;;5.80;99.90;;;;;;10485377;28;19939;-87
2021/03/04 00:45:29;;;;;;;;;;;5.70;99.90;;;;;;10501398;28;19924;-87
2021/03/04 00:50:39;;;;;;;;;;;5.40;99.90;;;;;;10502881;28;19935;-87
2021/03/04 00:55:40;;;;;;;;;;;5.50;99.90;;;;;;10500793;28;19931;-87
2021/03/04 01:00:42;;;;;;;;;;;5.60;99.90;;;;;;10484644;28;19960;-87
2021/03/04 01:05:43;;;;;;;;;;;5.30;99.90;;;;;;10483293;28;19928;-87
2021/03/04 01:10:46;;;;;;;;;;;5.50;99.90;;;;;;10483637;28;19933;-87
2021/03/04 01:15:47;;;;;;;;;;;6.00;99.90;;;;;;10500346;28;19924;-87
2021/03/04 01:21:00;;;;;;;;;;;5.70;99.90;;;;;;10485750;28;19924;-87
2021/03/04 01:26:01;;;;;;;;;;;5.50;99.90;;;;;;10483173;28;20377;-87
2021/03/04 01:31:03;;;;;;;;;;;5.40;99.90;;;;;;10503310;28;19925;-87
2021/03/04 01:36:05;;;;;;;;;;;5.50;99.90;;;;;;10522429;28;19925;-87
2021/03/04 01:41:06;;;;;;;;;;;5.70;99.90;;;;;;10500788;28;19935;-87
2021/03/04 01:46:08;;;;;;;;;;;5.70;99.90;;;;;;10498695;28;20367;-87
2021/03/04 01:51:23;;;;;;;;;;;6.70;99.90;;;;;;10499531;28;19935;-87
2021/03/04 01:56:24;;;;;;;;;;;5.50;99.90;;;;;;10482215;28;19931;-87
2021/03/04 02:01:25;;;;;;;;;;;5.70;99.90;;;;;;10482375;28;19929;-87
2021/03/04 02:06:31;;;;;;;;;;;5.40;99.90;;;;;;10497681;28;20295;-87
2021/03/04 02:11:38;;;;;;;;;;;6.60;99.90;;;;;;10498349;28;19935;-88
2021/03/04 02:16:45;;;;;;;;;;;5.50;99.90;;;;;;10498677;28;20361;-87
2021/03/04 02:21:58;;;;;;;;;;;5.20;99.90;;;;;;10496641;28;19925;-87
2021/03/04 02:27:06;;;;;;;;;;;5.30;99.90;;;;;;10498120;28;19983;-87
2021/03/04 02:32:08;;;;;;;;;;;5.10;99.90;;;;;;10498554;28;19924;-87
2021/03/04 02:37:12;;;;;;;;;;;5.80;99.90;;;;;;10496507;28;19932;-87
2021/03/04 02:42:18;;;;;;;;;;;6.30;99.90;;;;;;10497061;28;19947;-87
2021/03/04 02:47:20;;;;;;;;;;;4.90;99.90;;;;;;10496378;28;19928;-87
2021/03/04 02:52:22;;;;;;;;;;;5.30;99.90;;;;;;10495873;28;20379;-87
2021/03/04 02:57:23;;;;;;;;;;;5.20;99.90;;;;;;10495805;28;20393;-87
2021/03/04 03:02:26;;;;;;;;;;;5.60;99.90;;;;;;10479125;28;19930;-88
2021/03/04 03:07:28;;;;;;;;;;;4.80;99.90;;;;;;10495382;28;19946;-87
2021/03/04 03:12:31;;;;;;;;;;;5.00;99.90;;;;;;10495926;28;19925;-87
2021/03/04 03:17:32;;;;;;;;;;;5.00;99.90;;;;;;10495989;28;20019;-87
2021/03/04 03:22:35;;;;;;;;;;;5.10;99.90;;;;;;10479139;28;19931;-87
2021/03/04 03:27:36;;;;;;;;;;;5.10;99.90;;;;;;10495264;28;20401;-87
2021/03/04 03:32:42;;;;;;;;;;;5.60;99.90;;;;;;10495748;28;19928;-87
2021/03/04 03:37:44;;;;;;;;;;;5.20;99.90;;;;;;10495378;28;19928;-87
2021/03/04 03:42:45;;;;;;;;;;;5.00;99.90;;;;;;10495457;28;20130;-87
2021/03/04 03:47:47;;;;;;;;;;;5.20;99.90;;;;;;10495272;28;19924;-87
2021/03/04 03:52:56;;;;;;;;;;;5.80;99.90;;;;;;10496131;28;19975;-87
2021/03/04 03:57:59;;;;;;;;;;;5.10;99.90;;;;;;10494979;28;20299;-87
2021/03/04 04:03:02;;;;;;;;;;;5.10;99.90;;;;;;10494861;28;20011;-87
2021/03/04 04:08:04;;;;;;;;;;;4.90;99.90;;;;;;10494812;28;19935;-87
2021/03/04 04:13:05;;;;;;;;;;;5.10;99.90;;;;;;10494974;28;19934;-87
2021/03/04 04:18:07;;;;;;;;;;;4.90;99.90;;;;;;10494160;28;20280;-87
2021/03/04 04:23:21;;;;;;;;;;;5.20;99.90;;;;;;10479840;28;19935;-87
2021/03/04 04:28:22;;;;;;;;;;;5.00;99.90;;;;;;10477787;28;19933;-87
2021/03/04 04:33:24;;;;;;;;;;;4.90;99.90;;;;;;10494229;28;19967;-87
2021/03/04 04:38:26;;;;;;;;;;;5.10;99.90;;;;;;10477172;28;20042;-87
2021/03/04 04:43:27;;;;;;;;;;;4.90;99.90;;;;;;10454806;28;20422;-87
2021/03/04 04:48:28;;;;;;;;;;;4.80;99.90;;;;;;10501121;28;19925;-87
2021/03/04 04:53:45;;;;;;;;;;;5.10;99.90;;;;;;10486255;28;20272;-87
2021/03/04 04:58:46;;;;;;;;;;;4.80;99.90;;;;;;10483697;28;20403;-87
2021/03/04 05:03:47;;;;;;;;;;;4.70;99.90;;;;;;10500476;28;20264;-87
2021/03/04 05:08:48;;;;;;;;;;;5.00;99.90;;;;;;10500213;28;19928;-87
2021/03/04 05:13:49;;;;;;;;;;;4.40;99.90;;;;;;10484102;28;19924;-87
2021/03/04 05:18:51;;;;;;;;;;;4.70;99.90;;;;;;10499983;28;19931;-87
2021/03/04 05:24:06;;;;;;;;;;;4.80;99.90;;;;;;10485663;28;19928;-87
2021/03/04 05:29:07;;;;;;;;;;;4.80;99.90;;;;;;10483273;28;19928;-87
2021/03/04 08:07:04;;;;;;;;;;;4.40;99.90;;;;;;10461219;27;19928;-88
2021/03/04 08:12:13;;;;;;;;;;;4.40;99.90;;;;;;10479822;28;19931;-88
2021/03/04 08:17:14;;;;;;;;;;;4.30;99.90;;;;;;10481317;28;19934;-87
2021/03/04 08:22:17;;;;;;;;;;;4.60;99.90;;;;;;10488544;28;20413;-87
2021/03/04 08:27:18;;;;;;;;;;;4.30;99.90;;;;;;10505278;28;19952;-87
2021/03/04 08:32:19;;;;;;;;;;;4.20;99.90;;;;;;10488165;28;19930;-87
2021/03/04 08:37:22;;;;;;;;;;;6.10;99.90;;;;;;10487700;28;19924;-87
2021/03/04 08:42:23;;;;;;;;;;;4.30;99.90;;;;;;10487709;28;20302;-88
2021/03/04 08:47:25;;;;;;;;;;;4.30;99.90;;;;;;10487604;28;20020;-87
2021/03/04 08:52:27;;;;;;;;;;;4.20;99.90;;;;;;10486667;28;19951;-88
2021/03/04 08:57:28;;;;;;;;;;;4.20;99.90;;;;;;10503509;28;19947;-87
2021/03/04 09:02:29;;;;;;;;;;;6.30;99.90;;;;;;10486894;28;20011;-87
2021/03/04 09:07:32;;;;;;;;;;;4.60;99.90;;;;;;10485938;28;20358;-87
2021/03/04 09:12:46;;;;;;;;;;;4.50;99.90;;;;;;10502591;28;20290;-87
2021/03/04 09:17:47;;;;;;;;;;;4.50;99.90;;;;;;10485412;28;20286;-88
2021/03/04 09:22:49;;;;;;;;;;;4.20;99.90;;;;;;10486181;28;20355;-87
2021/03/04 09:27:50;;;;;;;;;;;6.00;99.90;;;;;;10485415;28;20378;-87
2021/03/04 09:32:52;;;;;;;;;;;4.60;99.90;;;;;;10503435;28;19931;-87
2021/03/04 09:38:04;;;;;;;;;;;6.00;99.90;;;;;;10486008;28;20015;-87
2021/03/04 09:43:12;;;;;;;;;;;4.30;99.90;;;;;;10485125;28;19931;-87
2021/03/04 09:48:14;;;;;;;;;;;5.30;99.90;;;;;;10485367;28;19925;-88
2021/03/04 09:53:17;;;;;;;;;;;4.60;99.90;;;;;;10485079;28;20442;-87
2021/03/04 09:58:22;;;;;;;;;;;4.30;99.90;;;;;;10484686;28;19924;-87
2021/03/04 10:03:31;;;;;;;;;;;4.60;99.90;;;;;;10484650;28;19935;-87
2021/03/04 10:08:36;;;;;;;;;;;4.70;99.90;;;;;;10502110;28;20012;-87
2021/03/04 10:13:37;;;;;;;;;;;4.70;99.90;;;;;;10484063;28;19931;-87
2021/03/04 10:18:43;;;;;;;;;;;5.20;99.90;;;;;;10483133;28;19925;-87
2021/03/04 10:23:48;;;;;;;;;;;5.00;99.90;;;;;;10500356;28;19928;-87
2021/03/04 10:28:49;;;;;;;;;;;4.70;99.90;;;;;;10501245;28;20015;-87
2021/03/04 10:33:50;;;;;;;;;;;6.30;99.90;;;;;;10483403;28;19963;-87
2021/03/04 10:38:52;;;;;;;;;;;4.70;99.90;;;;;;10482102;28;19931;-85
2021/03/04 10:43:53;;;;;;;;;;;6.60;99.90;;;;;;10481906;28;19924;-87
2021/03/04 10:48:54;;;;;;;;;;;6.40;99.90;;;;;;10500765;28;20011;-87
2021/03/04 10:53:59;;;;;;;;;;;6.50;99.90;;;;;;10482205;28;19935;-87
2021/03/04 10:59:00;;;;;;;;;;;5.00;99.90;;;;;;10482387;28;19924;-87
2021/03/04 11:04:02;;;;;;;;;;;4.60;99.90;;;;;;10481830;28;19970;-87
2021/03/04 11:09:03;;;;;;;;;;;4.60;99.90;;;;;;10482015;28;19925;-87
2021/03/04 11:14:04;;;;;;;;;;;4.50;99.90;;;;;;10481997;28;19929;-87
2021/03/04 11:19:05;;;;;;;;;;;5.50;99.90;;;;;;10481582;28;19925;-87
2021/03/04 11:24:07;;;;;;;;;;;6.20;99.90;;;;;;10483256;28;19931;-88
2021/03/04 11:29:09;;;;;;;;;;;4.70;99.90;;;;;;10480926;28;20384;-87
2021/03/04 11:34:10;;;;;;;;;;;5.00;99.90;;;;;;10481579;28;19931;-88
2021/03/04 11:39:12;;;;;;;;;;;6.20;99.90;;;;;;10480585;28;20375;-88
2021/03/04 11:44:13;;;;;;;;;;;4.50;99.90;;;;;;10481346;28;20007;-88
2021/03/04 11:49:15;;;;;;;;;;;4.60;99.90;;;;;;10475506;22;19928;-86
2021/03/04 11:54:16;;;;;;;;;;;4.70;99.90;;;;;;10443471;28;19929;-85
2021/03/04 11:59:17;;;;;;;;;;;4.70;99.90;;;;;;10445182;28;19925;-83
2021/03/04 12:04:18;;;;;;;;;;;4.70;99.90;;;;;;10428051;28;20429;-84
2021/03/04 12:09:20;;;;;;;;;;;4.70;99.90;;;;;;10445287;28;19928;-83
2021/03/04 12:14:21;;;;;;;;;;;6.30;99.90;;;;;;10445197;28;19925;-84
2021/03/04 12:19:23;;;;;;;;;;;4.50;99.90;;;;;;10443769;28;20334;-83
2021/03/04 12:24:24;;;;;;;;;;;4.60;99.90;;;;;;10461428;28;19932;-84
2021/03/04 12:29:26;;;;;;;;;;;5.00;99.90;;;;;;10460442;28;19971;-86
2021/03/04 12:34:28;;;;;;;;;;;4.50;99.90;;;;;;10443865;28;19932;-83
2021/03/04 12:39:29;;;;;;;;;;;6.20;99.90;;;;;;10476102;28;19929;-83
2021/03/04 12:44:31;;;;;;;;;;;4.00;99.90;;;;;;10427137;28;20035;-83
2021/03/04 12:49:32;;;;;;;;;;;4.20;99.90;;;;;;10426464;28;19924;-83
2021/03/04 12:54:34;;;;;;;;;;;5.10;99.90;;;;;;10426651;28;19936;-83
2021/03/04 12:59:36;;;;;;;;;;;5.40;99.90;;;;;;10424837;28;19955;-83
2021/03/04 13:04:37;;;;;;;;;;;4.50;99.90;;;;;;10441166;28;20314;-83
2021/03/04 13:09:40;;;;;;;;;;;4.70;99.90;;;;;;10460568;28;19947;-83
2021/03/04 13:14:42;;;;;;;;;;;4.70;99.90;;;;;;10442629;28;19956;-83
2021/03/04 13:19:43;;;;;;;;;;;4.90;99.90;;;;;;10441914;28;20008;-83
2021/03/04 13:24:44;;;;;;;;;;;6.50;99.90;;;;;;10460020;28;20019;-83
2021/03/04 13:30:03;;;;;;;;;;;5.90;99.90;;;;;;10429954;28;20360;-83
2021/03/04 13:35:04;;;;;;;;;;;5.10;99.90;;;;;;10459610;28;19941;-83
2021/03/04 13:40:06;;;;;;;;;;;5.00;99.90;;;;;;10440662;28;19924;-83
2021/03/04 13:45:07;;;;;;;;;;;5.00;99.90;;;;;;10441108;28;19925;-83
2021/03/04 13:50:09;;;;;;;;;;;5.10;99.90;;;;;;10440567;28;19929;-83
2021/03/04 13:55:10;;;;;;;;;;;5.20;99.90;;;;;;10437235;28;19925;-83
2021/03/04 14:00:21;;;;;;;;;;;5.20;99.90;;;;;;10441841;28;19978;-83
2021/03/04 14:05:24;;;;;;;;;;;5.10;99.90;;;;;;10440207;28;20451;-83
2021/03/04 14:10:25;;;;;;;;;;;5.40;99.90;;;;;;10439439;28;20008;-83
2021/03/04 14:15:27;;;;;;;;;;;5.10;99.90;;;;;;10470982;28;19936;-83
2021/03/04 14:20:32;;;;;;;;;;;5.10;99.90;;;;;;10437791;28;20028;-84
2021/03/04 14:25:34;;;;;;;;;;;6.70;99.90;;;;;;10450314;28;20015;-85
2021/03/04 14:30:45;;;;;;;;;;;5.00;99.90;;;;;;10433726;28;19925;-83
2021/03/04 14:35:47;;;;;;;;;;;5.70;99.90;;;;;;10432483;28;19929;-84
2021/03/04 14:40:48;;;;;;;;;;;5.10;99.90;;;;;;10431228;28;20427;-84
2021/03/04 14:45:58;;;;;;;;;;;5.40;99.90;;;;;;10449377;28;19928;-84
2021/03/04 14:51:00;;;;;;;;;;;5.20;99.90;;;;;;10415275;28;19932;-83
2021/03/04 14:56:01;;;;;;;;;;;5.20;99.90;;;;;;10415535;28;19929;-84
2021/03/04 15:01:10;;;;;;;;;;;5.30;99.90;;;;;;10448063;28;19933;-84
2021/03/04 15:06:18;;;;;;;;;;;5.20;99.90;;;;;;10414852;28;19929;-84
2021/03/04 15:11:19;;;;;;;;;;;5.30;99.90;;;;;;10431759;28;20390;-84
2021/03/04 15:16:20;;;;;;;;;;;5.30;99.90;;;;;;10431285;28;19928;-84
2021/03/04 15:21:22;;;;;;;;;;;5.30;99.90;;;;;;10414940;28;20318;-84
2021/03/04 15:26:24;;;;;;;;;;;5.50;99.90;;;;;;10430803;28;19979;-84
2021/03/04 15:31:31;;;;;;;;;;;5.40;99.90;;;;;;10432083;28;20417;-84
2021/03/04 15:36:35;;;;;;;;;;;5.30;99.90;;;;;;10430755;28;19932;-84
2021/03/04 15:41:38;;;;;;;;;;;7.00;99.90;;;;;;10462979;28;20296;-84
2021/03/04 15:46:39;;;;;;;;;;;5.80;99.90;;;;;;10431106;28;20023;-84
2021/03/04 15:51:41;;;;;;;;;;;5.30;99.90;;;;;;10431061;28;19932;-84
2021/03/04 15:56:42;;;;;;;;;;;5.30;99.90;;;;;;10448229;28;19929;-84
2021/03/04 16:02:04;;;;;;;;;;;5.30;99.90;;;;;;10420048;28;19929;-84
2021/03/04 16:07:05;;;;;;;;;;;5.20;99.90;;;;;;10429206;28;20008;-84
2021/03/04 16:12:07;;;;;;;;;;;5.20;99.90;;;;;;10429718;28;20007;-84
2021/03/04 16:17:08;;;;;;;;;;;5.20;99.90;;;;;;10413929;28;19929;-84
2021/03/04 16:22:10;;;;;;;;;;;5.50;99.90;;;;;;10429500;28;19972;-84
2021/03/04 16:27:11;;;;;;;;;;;6.90;99.90;;;;;;10429891;28;19929;-84
2021/03/04 16:32:18;;;;;;;;;;;6.80;99.90;;;;;;10444930;28;19971;-84
2021/03/04 16:37:19;;;;;;;;;;;5.10;99.90;;;;;;10430445;28;19928;-85
2021/03/04 16:42:21;;;;;;;;;;;5.10;99.90;;;;;;10447526;28;20039;-84
2021/03/04 16:47:22;;;;;;;;;;;5.00;99.90;;;;;;10429257;28;20686;-85
2021/03/04 16:52:24;;;;;;;;;;;5.00;99.90;;;;;;10421144;28;19928;-84
2021/03/04 16:57:25;;;;;;;;;;;5.00;99.90;;;;;;10421191;28;20319;-84
2021/03/04 17:02:41;;;;;;;;;;;5.00;99.90;;;;;;10439288;28;20372;-84
2021/03/04 17:07:43;;;;;;;;;;;5.00;99.90;;;;;;10437590;28;19928;-84
2021/03/04 17:12:44;;;;;;;;;;;5.00;99.90;;;;;;10436153;28;19968;-84
2021/03/04 17:17:45;;;;;;;;;;;7.00;99.90;;;;;;10419445;28;19929;-84
2021/03/04 17:22:47;;;;;;;;;;;5.00;99.90;;;;;;10453057;28;19928;-84
2021/03/04 17:27:48;;;;;;;;;;;5.30;99.90;;;;;;10436663;28;19929;-84
2021/03/04 17:33:03;;;;;;;;;;;6.50;99.90;;;;;;10467690;28;19932;-84
2021/03/04 17:38:05;;;;;;;;;;;5.00;99.90;;;;;;10441589;28;19937;-84
2021/03/04 17:43:06;;;;;;;;;;;5.30;99.90;;;;;;10438473;28;20308;-84
2021/03/04 17:48:08;;;;;;;;;;;4.90;99.90;;;;;;10460105;22;19928;-85
2021/03/04 17:53:09;;;;;;;;;;;4.90;99.90;;;;;;10538622;28;19966;-85
2021/03/04 17:58:11;;;;;;;;;;;4.80;99.90;;;;;;10491311;28;19933;-85
2021/03/04 18:03:27;;;;;;;;;;;4.80;99.90;;;;;;10471877;28;19928;-84
2021/03/04 18:08:30;;;;;;;;;;;4.70;99.90;;;;;;10462641;28;19928;-85
2021/03/04 18:13:31;;;;;;;;;;;4.70;99.90;;;;;;10484042;28;20313;-84
2021/03/04 18:18:33;;;;;;;;;;;4.60;99.90;;;;;;10489484;28;19935;-84
2021/03/04 18:23:34;;;;;;;;;;;4.60;99.90;;;;;;10518632;28;20014;-85
2021/03/04 18:28:36;;;;;;;;;;;4.60;99.90;;;;;;10502191;28;19929;-85
2021/03/04 18:33:48;;;;;;;;;;;5.00;99.90;;;;;;10537191;28;20389;-85
2021/03/04 18:38:49;;;;;;;;;;;4.50;99.90;;;;;;10501134;28;19939;-85
2021/03/04 18:43:50;;;;;;;;;;;6.10;99.90;;;;;;10489841;28;19925;-85
2021/03/04 18:48:52;;;;;;;;;;;5.80;99.90;;;;;;10492986;28;19928;-85
2021/03/04 18:53:53;;;;;;;;;;;4.40;99.90;;;;;;10487169;28;19928;-85
2021/03/04 18:58:55;;;;;;;;;;;4.40;99.90;;;;;;10503370;28;19925;-85
2021/03/04 19:04:10;;;;;;;;;;;5.60;99.90;;;;;;10477476;28;20294;-85
2021/03/04 19:09:12;;;;;;;;;;;5.90;99.90;;;;;;10476465;28;19925;-85
2021/03/04 19:14:13;;;;;;;;;;;4.30;99.90;;;;;;10490398;28;19938;-85
2021/03/04 19:19:18;;;;;;;;;;;5.40;99.90;;;;;;10519287;28;19928;-84
2021/03/04 19:24:19;;;;;;;;;;;4.20;99.90;;;;;;10496607;28;19928;-85
2021/03/04 19:29:21;;;;;;;;;;;4.30;99.90;;;;;;10505086;28;19938;-85
2021/03/04 19:34:35;;;;;;;;;;;4.10;99.90;;;;;;10477846;28;19928;-84
2021/03/04 19:39:36;;;;;;;;;;;5.90;99.90;;;;;;10493202;28;19964;-85
2021/03/04 19:44:38;;;;;;;;;;;6.10;99.90;;;;;;10514650;28;19924;-85
2021/03/04 19:49:39;;;;;;;;;;;5.70;99.90;;;;;;10525808;28;19928;-85
2021/03/04 19:54:43;;;;;;;;;;;4.00;99.90;;;;;;10524198;28;20014;-85
2021/03/04 19:59:44;;;;;;;;;;;4.20;99.90;;;;;;10515805;28;19987;-85
2021/03/04 20:04:58;;;;;;;;;;;4.00;99.90;;;;;;10491176;28;20346;-85
2021/03/04 20:09:59;;;;;;;;;;;4.00;99.90;;;;;;10498266;28;19928;-85
2021/03/04 20:15:02;;;;;;;;;;;3.90;99.90;;;;;;10488057;28;19932;-85
2021/03/04 20:20:05;;;;;;;;;;;3.90;99.90;;;;;;10498580;28;20395;-85
2021/03/04 20:25:07;;;;;;;;;;;3.80;99.90;;;;;;10499470;28;20359;-85
2021/03/04 20:30:09;;;;;;;;;;;3.80;99.90;;;;;;10534782;28;19935;-86
2021/03/04 20:35:24;;;;;;;;;;;3.90;99.90;;;;;;10509300;28;20318;-85
2021/03/04 20:40:25;;;;;;;;;;;3.80;99.90;;;;;;10506151;28;19999;-85
2021/03/04 20:45:26;;;;;;;;;;;3.80;99.90;;;;;;10485987;28;19924;-85
2021/03/04 20:50:29;;;;;;;;;;;4.10;99.90;;;;;;10516580;28;19943;-86
2021/03/04 20:55:32;;;;;;;;;;;3.70;99.90;;;;;;10505005;28;19928;-85
2021/03/04 21:00:33;;;;;;;;;;;3.80;99.90;;;;;;10513970;28;19928;-85
2021/03/04 21:05:45;;;;;;;;;;;5.00;99.90;;;;;;10529419;28;20371;-86
2021/03/04 21:10:48;;;;;;;;;;;3.80;99.90;;;;;;10530119;28;20330;-86
2021/03/04 21:15:49;;;;;;;;;;;3.80;99.90;;;;;;10515781;28;19934;-86
2021/03/04 21:20:51;;;;;;;;;;;4.60;99.90;;;;;;10501108;28;19928;-86
2021/03/04 21:25:53;;;;;;;;;;;3.70;99.90;;;;;;10518505;28;19934;-85
2021/03/04 21:30:54;;;;;;;;;;;4.80;99.90;;;;;;10503308;28;20043;-85
2021/03/04 21:36:07;;;;;;;;;;;3.70;99.90;;;;;;10504547;28;19927;-85
2021/03/04 21:41:09;;;;;;;;;;;3.70;99.90;;;;;;10514274;28;20390;-85
2021/03/04 21:46:10;;;;;;;;;;;3.60;99.90;;;;;;10483420;28;20294;-85
2021/03/04 21:51:12;;;;;;;;;;;4.20;99.90;;;;;;10510030;28;19924;-85
2021/03/04 21:56:13;;;;;;;;;;;3.60;99.90;;;;;;10488560;28;19924;-85
2021/03/04 22:01:14;;;;;;;;;;;3.60;99.90;;;;;;10519372;28;19927;-85
2021/03/04 22:06:32;;;;;;;;;;;3.60;99.90;;;;;;10511704;28;20378;-85
2021/03/04 22:11:34;;;;;;;;;;;3.60;99.90;;;;;;10536412;28;20028;-85
2021/03/04 22:16:36;;;;;;;;;;;3.60;99.90;;;;;;10466214;28;19982;-85
2021/03/04 22:21:37;;;;;;;;;;;3.50;99.90;;;;;;10498619;28;19924;-85
2021/03/04 22:26:39;;;;;;;;;;;3.60;99.90;;;;;;10482201;28;19928;-85
2021/03/04 22:31:41;;;;;;;;;;;4.30;99.90;;;;;;10523475;28;20004;-85
2021/03/04 22:36:54;;;;;;;;;;;4.20;99.90;;;;;;10508559;28;20286;-85
2021/03/04 22:41:55;;;;;;;;;;;5.30;99.90;;;;;;10523210;28;19955;-85
2021/03/04 22:46:56;;;;;;;;;;;4.60;99.90;;;;;;10522831;28;19930;-86
2021/03/04 22:51:58;;;;;;;;;;;3.70;99.90;;;;;;10493525;28;19928;-85
2021/03/04 22:56:59;;;;;;;;;;;4.30;99.90;;;;;;10522469;28;19934;-85
2021/03/04 23:02:00;;;;;;;;;;;4.40;99.90;;;;;;10501195;28;19935;-85
2021/03/04 23:07:16;;;;;;;;;;;3.20;99.90;;;;;;10467836;28;20421;-85
2021/03/04 23:12:17;;;;;;;;;;;3.20;99.90;;;;;;10502534;28;19930;-85
2021/03/04 23:17:21;;;;;;;;;;;3.80;99.90;;;;;;10538797;28;20395;-85
2021/03/04 23:22:23;;;;;;;;;;;4.70;99.90;;;;;;10473342;28;19967;-86
2021/03/04 23:27:24;;;;;;;;;;;3.40;99.90;;;;;;10497710;28;19952;-86
2021/03/04 23:32:26;;;;;;;;;;;3.30;99.90;;;;;;10479529;28;19942;-86
2021/03/04 23:37:46;;;;;;;;;;;3.30;99.90;;;;;;10496646;28;20446;-86
2021/03/04 23:42:48;;;;;;;;;;;3.30;99.90;;;;;;10479563;28;19924;-85
2021/03/04 23:47:50;;;;;;;;;;;3.30;99.90;;;;;;10511856;22;20300;-85
2021/03/04 23:52:51;;;;;;;;;;;3.30;99.90;;;;;;10622352;28;19931;-88
2021/03/04 23:57:53;;;;;;;;;;;4.10;99.90;;;;;;10604263;28;20374;-87
